Time;durP1;ratioP1;P1;durP2;ratioP2;P2;SDS_P1;SDS_P2;PMS_P1;PMS_P2;Temp;Humidity;BMP_temperature;BMP_pressure;BME280_temperature;BME280_humidity;BME280_pressure;Samples;Min_cycle;Max_cycle;Signal;HPM_P1;HPM_P2
2021/07/20 00:01:40;;;;;;;7.90;7.10;;;21.80;34.40;;;;;;10448782;28;20240;-72
2021/07/20 00:06:45;;;;;;;8.33;7.53;;;21.80;34.40;;;;;;10455276;28;20283;-72
2021/07/20 00:11:48;;;;;;;9.47;8.13;;;21.80;35.00;;;;;;10450566;28;20786;-71
2021/07/20 00:16:52;;;;;;;8.93;7.43;;;21.80;34.50;;;;;;10445731;28;20225;-72
2021/07/20 00:21:56;;;;;;;8.67;7.87;;;21.80;34.40;;;;;;10454182;28;20243;-72
2021/07/20 00:26:59;;;;;;;13.13;7.43;;;21.90;35.60;;;;;;10453513;28;20251;-71
2021/07/20 00:32:03;;;;;;;9.37;7.77;;;21.90;34.70;;;;;;10449400;28;20240;-71
2021/07/20 00:37:07;;;;;;;7.57;6.87;;;21.90;34.80;;;;;;10444238;28;20236;-71
2021/07/20 00:42:11;;;;;;;9.23;7.73;;;21.90;35.30;;;;;;10445955;28;20635;-72
2021/07/20 00:47:15;;;;;;;8.17;7.30;;;21.90;34.90;;;;;;10450225;28;20220;-71
2021/07/20 00:52:19;;;;;;;9.03;7.20;;;21.80;34.80;;;;;;10446721;28;20636;-72
2021/07/20 00:57:24;;;;;;;8.17;7.10;;;21.80;35.30;;;;;;10451783;28;20271;-72
2021/07/20 01:02:27;;;;;;;9.20;7.07;;;21.70;35.20;;;;;;10451190;28;20232;-72
2021/07/20 01:07:34;;;;;;;8.57;7.67;;;21.70;35.10;;;;;;10444599;28;20599;-72
2021/07/20 01:12:38;;;;;;;10.03;7.37;;;21.70;35.90;;;;;;10447559;28;20255;-72
2021/07/20 01:17:43;;;;;;;8.80;7.17;;;21.60;35.50;;;;;;10455263;28;20228;-72
2021/07/20 01:22:53;;;;;;;8.17;7.33;;;21.60;35.50;;;;;;10447202;28;20618;-72
2021/07/20 01:28:02;;;;;;;7.40;6.70;;;21.50;36.60;;;;;;10447909;28;20258;-72
2021/07/20 01:33:08;;;;;;;8.60;7.67;;;21.50;36.60;;;;;;10449467;28;20228;-73
2021/07/20 01:38:12;;;;;;;8.00;7.20;;;21.50;36.30;;;;;;10441745;28;20240;-73
2021/07/20 01:43:20;;;;;;;7.50;6.80;;;21.40;36.00;;;;;;10445289;28;20224;-73
2021/07/20 01:48:26;;;;;;;7.23;6.53;;;21.30;36.50;;;;;;10433366;28;20300;-73
2021/07/20 01:53:29;;;;;;;8.63;7.83;;;21.30;36.50;;;;;;10431095;28;20244;-73
2021/07/20 01:58:37;;;;;;;8.57;7.57;;;21.30;36.20;;;;;;10435546;28;20236;-73
2021/07/20 02:09:07;;;;;;;9.73;8.27;;;21.20;37.20;;;;;;10400198;28;20217;-73
2021/07/20 02:14:14;;;;;;;8.30;7.50;;;21.20;37.60;;;;;;10434375;28;21049;-73
2021/07/20 02:19:22;;;;;;;9.57;8.57;;;21.20;37.60;;;;;;10436027;28;20713;-71
2021/07/20 02:24:27;;;;;;;8.27;7.30;;;21.20;37.60;;;;;;10448730;28;20232;-71
2021/07/20 02:29:33;;;;;;;8.60;7.73;;;21.20;37.60;;;;;;10451738;28;20222;-71
2021/07/20 02:34:39;;;;;;;10.03;8.30;;;21.20;37.60;;;;;;10452097;28;20235;-71
2021/07/20 02:39:45;;;;;;;10.17;8.80;;;21.20;37.60;;;;;;10449336;28;20581;-71
2021/07/20 02:44:50;;;;;;;9.23;8.23;;;21.20;37.60;;;;;;10452566;28;20221;-71
2021/07/20 02:49:54;;;;;;;9.73;8.23;;;21.10;37.50;;;;;;10448242;28;20744;-72
2021/07/20 02:54:59;;;;;;;8.63;7.83;;;21.10;37.50;;;;;;10446073;28;20599;-72
2021/07/20 03:00:06;;;;;;;10.00;8.50;;;21.00;37.40;;;;;;10451144;28;20226;-69
2021/07/20 03:05:11;;;;;;;10.30;7.97;;;20.90;37.70;;;;;;10448780;28;20245;-69
2021/07/20 03:10:15;;;;;;;8.10;7.30;;;20.90;37.30;;;;;;10449205;28;20594;-69
2021/07/20 03:15:19;;;;;;;8.03;7.23;;;20.80;37.20;;;;;;10453656;28;20228;-68
2021/07/20 03:20:25;;;;;;;9.63;8.00;;;20.80;37.20;;;;;;10454196;28;20825;-69
2021/07/20 03:25:30;;;;;;;9.07;7.47;;;20.80;37.20;;;;;;10455666;28;20232;-69
2021/07/20 03:30:35;;;;;;;7.80;7.10;;;20.80;37.20;;;;;;10456115;28;20257;-69
2021/07/20 03:35:39;;;;;;;8.83;7.93;;;20.70;37.10;;;;;;10438034;28;20232;-69
2021/07/20 03:40:42;;;;;;;8.13;7.40;;;20.70;37.10;;;;;;10457968;28;20221;-68
2021/07/20 03:45:47;;;;;;;8.50;7.70;;;20.60;37.00;;;;;;10448209;28;20221;-69
2021/07/20 03:50:53;;;;;;;9.20;7.50;;;20.60;37.00;;;;;;10451750;28;20714;-73
2021/07/20 03:56:00;;;;;;;8.37;7.57;;;20.60;37.00;;;;;;10453710;28;20232;-72
2021/07/20 04:01:06;;;;;;;7.87;7.17;;;20.50;37.30;;;;;;10452016;28;20591;-72
2021/07/20 04:06:11;;;;;;;7.23;6.50;;;20.50;37.20;;;;;;10453704;28;20229;-72
2021/07/20 04:11:15;;;;;;;6.80;6.20;;;20.40;36.90;;;;;;10456412;28;20220;-72
2021/07/20 04:16:23;;;;;;;8.33;7.53;;;20.40;36.90;;;;;;10449515;28;20229;-72
2021/07/20 04:21:27;;;;;;;8.23;7.43;;;20.40;37.50;;;;;;10453007;28;20241;-73
2021/07/20 04:26:31;;;;;;;8.27;7.47;;;20.40;37.10;;;;;;10452045;28;20599;-72
2021/07/20 04:31:40;;;;;;;8.33;6.57;;;20.30;36.90;;;;;;10447007;28;20579;-73
2021/07/20 04:36:46;;;;;;;7.33;6.67;;;20.20;38.00;;;;;;10446486;28;20217;-73
2021/07/20 04:41:49;;;;;;;8.30;7.53;;;20.20;37.70;;;;;;10454890;28;20229;-73
2021/07/20 04:46:54;;;;;;;8.43;7.57;;;20.20;37.40;;;;;;10448212;28;20614;-72
2021/07/20 04:51:58;;;;;;;8.03;7.00;;;20.20;37.80;;;;;;10448062;28;20236;-72
2021/07/20 04:57:01;;;;;;;7.03;6.33;;;20.10;37.40;;;;;;10446160;28;20716;-72
2021/07/20 05:02:07;;;;;;;7.77;6.93;;;20.10;37.70;;;;;;10443619;28;20229;-72
2021/07/20 05:07:14;;;;;;;7.57;6.87;;;20.10;38.50;;;;;;10453195;28;20228;-73
2021/07/20 05:12:18;;;;;;;7.93;7.00;;;20.10;38.10;;;;;;10447788;28;20232;-73
2021/07/20 05:17:24;;;;;;;7.30;6.60;;;20.10;37.70;;;;;;10441821;28;20235;-72
2021/07/20 05:22:27;;;;;;;7.63;6.83;;;20.20;38.20;;;;;;10448791;28;20236;-73
2021/07/20 05:27:32;;;;;;;8.40;6.40;;;20.20;37.70;;;;;;10443899;28;20680;-73
2021/07/20 05:32:40;;;;;;;8.47;6.60;;;20.30;37.70;;;;;;10444551;28;20223;-73
2021/07/20 05:37:44;;;;;;;7.50;6.80;;;20.30;37.70;;;;;;10448050;28;20216;-72
2021/07/20 05:42:48;;;;;;;8.40;7.57;;;20.40;37.20;;;;;;10441953;28;20896;-72
2021/07/20 05:47:55;;;;;;;7.23;6.50;;;20.50;37.30;;;;;;10451221;28;20225;-72
2021/07/20 05:53:01;;;;;;;9.07;6.80;;;20.50;37.40;;;;;;10448824;28;20237;-72
2021/07/20 05:58:05;;;;;;;9.50;7.13;;;20.50;37.40;;;;;;10439849;28;20217;-72
2021/07/20 06:03:14;;;;;;;7.70;6.67;;;20.60;37.20;;;;;;10447016;28;20240;-67
2021/07/20 06:08:20;;;;;;;7.50;6.90;;;20.70;37.90;;;;;;10444787;28;20304;-68
2021/07/20 06:13:26;;;;;;;7.87;6.97;;;20.70;37.20;;;;;;10449080;28;20225;-68
2021/07/20 06:18:31;;;;;;;7.40;6.70;;;20.90;37.30;;;;;;10444243;28;20321;-69
2021/07/20 06:23:39;;;;;;;9.00;6.87;;;21.00;37.40;;;;;;10446333;28;20309;-67
2021/07/20 06:28:43;;;;;;;9.80;6.60;;;21.10;37.50;;;;;;10441800;28;20296;-67
2021/07/20 06:33:48;;;;;;;7.17;6.47;;;21.20;37.60;;;;;;10450275;28;20704;-67
2021/07/20 06:38:54;;;;;;;7.77;6.70;;;21.30;37.60;;;;;;10444746;28;20316;-67
2021/07/20 06:43:57;;;;;;;10.63;7.13;;;21.50;37.80;;;;;;10447264;28;20771;-67
2021/07/20 06:49:03;;;;;;;7.77;6.97;;;21.60;37.90;;;;;;10451499;28;20224;-67
2021/07/20 06:54:06;;;;;;;8.27;7.23;;;21.70;37.30;;;;;;10453308;28;20225;-67
2021/07/20 06:59:14;;;;;;;7.43;6.77;;;21.80;37.00;;;;;;10460898;28;20229;-67
2021/07/20 07:04:23;;;;;;;7.67;6.87;;;21.80;37.20;;;;;;10451288;28;20236;-67
2021/07/20 07:09:28;;;;;;;8.00;7.20;;;21.80;37.20;;;;;;10453863;28;20229;-67
2021/07/20 07:14:32;;;;;;;7.37;6.77;;;21.90;37.20;;;;;;10456308;28;20240;-67
2021/07/20 07:19:39;;;;;;;9.20;7.20;;;22.00;37.10;;;;;;10456516;28;20222;-67
2021/07/20 07:24:44;;;;;;;9.13;7.40;;;22.10;37.10;;;;;;10459810;28;20217;-67
2021/07/20 07:29:51;;;;;;;7.80;7.10;;;22.20;37.00;;;;;;10450396;28;20236;-67
2021/07/20 07:34:55;;;;;;;8.17;7.30;;;22.20;36.90;;;;;;10455614;28;20229;-67
2021/07/20 07:40:01;;;;;;;7.77;6.97;;;22.30;37.00;;;;;;10454409;28;20229;-67
2021/07/20 07:45:07;;;;;;;7.90;7.17;;;22.30;37.20;;;;;;10448940;28;20611;-67
2021/07/20 07:50:13;;;;;;;8.37;7.57;;;22.40;37.00;;;;;;10446323;28;20926;-67
2021/07/20 07:55:20;;;;;;;8.37;7.60;;;22.40;37.40;;;;;;10443213;28;20224;-67
2021/07/20 08:00:25;;;;;;;10.77;8.40;;;22.50;37.20;;;;;;10445953;28;20244;-67
2021/07/20 08:05:30;;;;;;;8.77;7.87;;;22.60;37.00;;;;;;10450303;28;20224;-70
2021/07/20 08:10:34;;;;;;;8.43;7.73;;;22.70;36.90;;;;;;10454288;28;20224;-66
2021/07/20 08:15:42;;;;;;;8.77;7.63;;;22.80;37.00;;;;;;10453823;28;20224;-67
2021/07/20 08:20:51;;;;;;;8.67;7.53;;;22.90;37.30;;;;;;10452912;28;20220;-72
2021/07/20 08:25:57;;;;;;;9.80;8.03;;;23.10;37.10;;;;;;10446941;28;20233;-72
2021/07/20 08:31:03;;;;;;;8.83;7.57;;;23.30;36.90;;;;;;10456725;28;20224;-72
2021/07/20 08:36:27;;;;;;;9.07;8.27;;;23.50;36.20;;;;;;10455095;28;20222;-73
2021/07/20 08:41:40;;;;;;;8.40;7.37;;;23.80;36.10;;;;;;10453094;28;20229;-73
2021/07/20 08:46:53;;;;;;;8.70;7.90;;;24.00;36.00;;;;;;10455007;28;20231;-72
2021/07/20 08:52:03;;;;;;;9.27;8.37;;;24.30;36.30;;;;;;10447113;28;20236;-72
2021/07/20 08:57:09;;;;;;;8.90;7.50;;;24.50;35.70;;;;;;10452596;28;20225;-73
2021/07/20 09:02:29;;;;;;;8.40;7.60;;;24.70;35.70;;;;;;10452099;28;20272;-73
2021/07/20 09:07:40;;;;;;;8.30;7.60;;;24.90;35.20;;;;;;10448977;28;21583;-73
2021/07/20 09:12:49;;;;;;;7.93;7.13;;;25.00;34.90;;;;;;10446431;28;20233;-72
2021/07/20 09:18:05;;;;;;;8.20;7.47;;;25.30;34.50;;;;;;10443886;28;20228;-73
2021/07/20 09:23:16;;;;;;;8.27;7.40;;;25.50;34.30;;;;;;10450597;28;20224;-73
2021/07/20 09:28:27;;;;;;;8.13;7.33;;;25.80;33.70;;;;;;10447289;28;20229;-73
2021/07/20 09:33:39;;;;;;;8.47;7.40;;;25.90;33.10;;;;;;10446613;28;20252;-73
2021/07/20 09:39:01;;;;;;;8.43;7.60;;;26.10;33.00;;;;;;10449759;28;20224;-73
2021/07/20 09:44:12;;;;;;;8.43;7.63;;;26.30;33.10;;;;;;10446836;28;20609;-72
2021/07/20 09:49:20;;;;;;;8.77;8.07;;;26.50;31.70;;;;;;10450269;28;20228;-73
2021/07/20 09:54:37;;;;;;;8.63;7.83;;;26.50;32.00;;;;;;10448168;28;20848;-72
2021/07/20 09:59:53;;;;;;;8.67;7.87;;;26.50;32.90;;;;;;10439186;28;20229;-73
2021/07/20 10:05:02;;;;;;;9.17;8.23;;;26.60;31.70;;;;;;10449521;28;20247;-72
2021/07/20 10:10:13;;;;;;;9.83;8.53;;;26.60;31.10;;;;;;10450987;28;20220;-72
2021/07/20 10:15:19;;;;;;;8.70;7.90;;;26.60;31.30;;;;;;10451685;28;20224;-73
2021/07/20 10:20:26;;;;;;;8.40;7.60;;;26.60;31.50;;;;;;10439708;28;20244;-72
2021/07/20 10:25:36;;;;;;;9.23;7.77;;;26.60;30.90;;;;;;10455716;28;20228;-67
2021/07/20 10:30:43;;;;;;;9.70;8.80;;;26.70;30.60;;;;;;10453433;28;20231;-67
2021/07/20 10:35:51;;;;;;;8.97;8.17;;;26.80;30.00;;;;;;10447238;28;20223;-67
2021/07/20 10:40:58;;;;;;;9.83;8.87;;;26.90;29.70;;;;;;10456628;28;20232;-67
2021/07/20 10:46:05;;;;;;;8.90;8.10;;;27.00;29.70;;;;;;10450191;28;20228;-71
2021/07/20 10:51:14;;;;;;;9.87;8.97;;;27.10;29.80;;;;;;10452678;28;20236;-67
2021/07/20 10:56:27;;;;;;;11.10;9.60;;;27.30;29.70;;;;;;10448142;28;20708;-67
2021/07/20 11:01:34;;;;;;;10.50;9.50;;;27.40;28.20;;;;;;10442750;28;20232;-66
2021/07/20 11:06:40;;;;;;;11.30;10.27;;;27.40;29.90;;;;;;10458437;28;20225;-67
2021/07/20 11:11:52;;;;;;;12.30;11.20;;;27.30;28.50;;;;;;10436128;28;20221;-67
2021/07/20 11:16:58;;;;;;;12.20;11.10;;;27.20;28.40;;;;;;10442270;28;20225;-67
2021/07/20 11:22:03;;;;;;;13.07;11.87;;;27.10;29.00;;;;;;10447885;28;20221;-71
2021/07/20 11:27:08;;;;;;;12.57;11.27;;;27.10;28.90;;;;;;10454882;28;20228;-68
2021/07/20 11:32:18;;;;;;;12.60;11.43;;;27.10;28.60;;;;;;10440352;28;20220;-67
2021/07/20 11:37:29;;;;;;;11.87;10.67;;;27.10;27.90;;;;;;10447538;28;20232;-67
2021/07/20 11:42:45;;;;;;;11.10;10.07;;;27.20;28.40;;;;;;10446190;28;20230;-67
2021/07/20 11:47:52;;;;;;;10.40;9.40;;;27.30;26.40;;;;;;10456730;28;20224;-67
2021/07/20 11:53:03;;;;;;;9.73;8.83;;;27.40;27.90;;;;;;10452172;28;20243;-67
2021/07/20 11:58:36;;;;;;;10.23;9.30;;;27.40;26.90;;;;;;10452484;28;20217;-68
2021/07/20 12:03:54;;;;;;;10.40;9.40;;;27.50;27.30;;;;;;10444199;28;20224;-67
2021/07/20 12:09:12;;;;;;;9.60;8.53;;;27.60;28.00;;;;;;10447307;28;20221;-67
2021/07/20 12:14:24;;;;;;;9.27;8.47;;;27.60;26.60;;;;;;10448515;28;20701;-67
2021/07/20 12:19:33;;;;;;;9.73;8.80;;;27.70;27.20;;;;;;10449614;28;20587;-67
2021/07/20 12:24:37;;;;;;;9.00;8.10;;;27.70;25.70;;;;;;10450268;28;20221;-67
2021/07/20 12:29:43;;;;;;;9.17;8.30;;;27.80;27.50;;;;;;10425043;28;20229;-67
2021/07/20 12:34:50;;;;;;;8.97;8.07;;;27.90;26.70;;;;;;10444164;28;20235;-68
2021/07/20 12:39:57;;;;;;;8.67;7.87;;;28.00;26.30;;;;;;10430042;28;20233;-67
2021/07/20 12:45:10;;;;;;;8.10;7.40;;;28.00;25.70;;;;;;10431785;28;20224;-67
2021/07/20 12:50:16;;;;;;;9.17;8.27;;;28.00;26.00;;;;;;10425374;28;20592;-68
2021/07/20 12:55:21;;;;;;;8.37;7.67;;;27.90;26.00;;;;;;10440651;28;20232;-67
2021/07/20 13:00:27;;;;;;;9.13;8.30;;;28.00;26.30;;;;;;10447314;28;20228;-70
2021/07/20 13:05:34;;;;;;;9.30;8.40;;;28.00;25.50;;;;;;10450667;28;20236;-70
2021/07/20 13:10:38;;;;;;;8.33;7.57;;;28.00;26.10;;;;;;10453438;28;20340;-70
2021/07/20 13:15:47;;;;;;;8.60;7.70;;;28.00;26.20;;;;;;10442069;28;20213;-72
2021/07/20 13:20:55;;;;;;;8.13;7.43;;;28.10;25.30;;;;;;10450229;28;20709;-70
2021/07/20 13:25:59;;;;;;;8.80;7.90;;;28.20;25.30;;;;;;10432166;28;20228;-70
2021/07/20 13:31:04;;;;;;;8.63;7.83;;;28.30;25.80;;;;;;10412860;28;20221;-71
2021/07/20 13:36:09;;;;;;;8.30;7.47;;;28.30;25.30;;;;;;10403901;28;20221;-70
2021/07/20 13:41:13;;;;;;;9.63;8.40;;;28.30;25.40;;;;;;10413963;28;20233;-70
2021/07/20 13:46:18;;;;;;;9.03;8.13;;;28.20;25.20;;;;;;10435380;28;20227;-76
2021/07/20 13:51:25;;;;;;;8.97;8.17;;;28.20;25.20;;;;;;10444000;28;20225;-72
2021/07/20 13:56:33;;;;;;;9.53;8.63;;;28.20;24.90;;;;;;10446081;28;20232;-71
2021/07/20 14:01:40;;;;;;;11.10;7.70;;;28.10;25.30;;;;;;10448217;28;20264;-71
2021/07/20 14:06:45;;;;;;;8.17;7.47;;;28.10;24.80;;;;;;10450238;28;20220;-73
2021/07/20 14:11:48;;;;;;;9.23;8.33;;;28.10;25.00;;;;;;10449983;28;20231;-72
2021/07/20 14:16:53;;;;;;;10.30;8.00;;;28.20;24.40;;;;;;10449096;28;20810;-67
2021/07/20 14:21:59;;;;;;;8.43;7.63;;;28.20;24.50;;;;;;10444846;28;20224;-67
2021/07/20 14:27:02;;;;;;;9.10;8.23;;;28.20;24.20;;;;;;10451018;28;20215;-68
2021/07/20 14:32:12;;;;;;;8.63;7.87;;;28.30;25.00;;;;;;10449682;28;20228;-68
2021/07/20 14:37:39;;;;;;;8.90;8.00;;;28.40;24.10;;;;;;10448061;28;20232;-67
2021/07/20 14:42:44;;;;;;;8.77;7.97;;;28.50;23.90;;;;;;10449064;28;20227;-67
2021/07/20 14:48:04;;;;;;;9.50;8.70;;;28.60;24.80;;;;;;10451290;28;20221;-68
2021/07/20 14:53:29;;;;;;;8.70;7.77;;;28.70;23.30;;;;;;10439432;28;20228;-68
2021/07/20 14:58:32;;;;;;;9.30;8.47;;;28.70;23.00;;;;;;10450470;28;20243;-68
2021/07/20 15:03:40;;;;;;;9.07;8.23;;;28.70;23.90;;;;;;10448699;28;20230;-68
2021/07/20 15:08:47;;;;;;;8.70;7.90;;;28.80;23.30;;;;;;10439277;28;20780;-73
2021/07/20 15:13:53;;;;;;;9.10;8.30;;;28.90;22.70;;;;;;10451825;28;20229;-73
2021/07/20 15:19:00;;;;;;;9.63;8.20;;;29.00;23.00;;;;;;10452545;28;20233;-73
2021/07/20 15:24:07;;;;;;;9.50;8.60;;;29.10;22.30;;;;;;10455222;28;20231;-73
2021/07/20 15:29:11;;;;;;;10.63;7.73;;;29.10;21.70;;;;;;10449971;28;20565;-73
2021/07/20 15:34:20;;;;;;;9.00;8.10;;;29.10;23.00;;;;;;10457291;28;20229;-73
2021/07/20 15:39:24;;;;;;;8.63;7.83;;;29.00;21.80;;;;;;10455263;28;20224;-73
2021/07/20 15:44:30;;;;;;;8.57;7.80;;;29.00;22.20;;;;;;10452187;28;20237;-73
2021/07/20 15:49:35;;;;;;;8.90;8.10;;;29.00;21.50;;;;;;10452619;28;20600;-73
2021/07/20 15:54:40;;;;;;;8.80;8.00;;;28.90;22.30;;;;;;10451762;28;20224;-73
2021/07/20 15:59:43;;;;;;;8.93;8.13;;;28.90;22.20;;;;;;10453942;28;20606;-73
2021/07/20 16:04:47;;;;;;;8.83;8.03;;;28.90;22.40;;;;;;10451294;28;20237;-73
2021/07/20 16:09:52;;;;;;;9.23;8.37;;;28.90;22.30;;;;;;10452038;28;20225;-70
2021/07/20 16:14:55;;;;;;;8.30;7.50;;;28.90;22.10;;;;;;10446652;28;20717;-70
2021/07/20 16:19:58;;;;;;;7.60;6.90;;;29.00;22.40;;;;;;10442079;28;20239;-70
2021/07/20 16:25:12;;;;;;;8.20;7.33;;;29.00;22.40;;;;;;10446539;28;20235;-70
2021/07/20 16:30:20;;;;;;;8.30;7.50;;;29.00;21.80;;;;;;10449587;28;20221;-67
2021/07/20 16:35:23;;;;;;;7.97;7.30;;;29.00;21.60;;;;;;10445822;28;20693;-67
2021/07/20 16:40:30;;;;;;;8.00;7.30;;;28.90;21.60;;;;;;10441426;28;20233;-67
2021/07/20 16:45:38;;;;;;;7.33;6.73;;;28.80;21.20;;;;;;10454494;28;20233;-68
2021/07/20 16:50:43;;;;;;;7.70;7.00;;;28.70;21.80;;;;;;10450872;28;20232;-67
2021/07/20 16:55:48;;;;;;;7.53;6.83;;;28.60;22.20;;;;;;10450824;28;20227;-67
2021/07/20 17:00:52;;;;;;;7.40;6.77;;;28.60;21.90;;;;;;10447212;28;20584;-67
2021/07/20 17:05:57;;;;;;;7.50;6.80;;;28.70;22.00;;;;;;10454367;28;20239;-68
2021/07/20 17:11:04;;;;;;;6.97;6.43;;;28.70;22.20;;;;;;10452149;28;20605;-67
2021/07/20 17:16:09;;;;;;;7.43;6.83;;;28.80;22.40;;;;;;10446738;28;20239;-68
2021/07/20 17:21:14;;;;;;;7.63;6.93;;;28.90;22.50;;;;;;10449538;28;20323;-68
2021/07/20 17:26:19;;;;;;;8.20;7.50;;;29.00;22.60;;;;;;10449276;28;20242;-68
2021/07/20 17:31:25;;;;;;;7.67;7.07;;;29.00;21.70;;;;;;10443839;28;20611;-67
2021/07/20 17:36:31;;;;;;;9.43;6.77;;;29.10;21.70;;;;;;10449098;28;20217;-68
2021/07/20 17:42:11;;;;;;;7.20;6.60;;;29.20;21.60;;;;;;10444392;28;20243;-67
2021/07/20 17:47:08;;;;;;;7.33;6.60;;;29.20;21.80;;;;;;10448516;28;20226;-69
2021/07/20 17:52:15;;;;;;;7.70;7.10;;;29.20;22.10;;;;;;10445564;28;20239;-67
2021/07/20 17:57:19;;;;;;;8.20;7.30;;;29.20;22.10;;;;;;10450904;28;20287;-67
2021/07/20 18:02:23;;;;;;;7.73;7.03;;;29.20;22.10;;;;;;10441884;28;20248;-73
2021/07/20 18:07:27;;;;;;;7.33;6.73;;;29.20;22.50;;;;;;10450294;28;20220;-73
2021/07/20 18:12:32;;;;;;;7.10;6.53;;;29.10;22.60;;;;;;10446026;28;20225;-73
2021/07/20 18:17:35;;;;;;;7.53;6.67;;;29.10;22.80;;;;;;10444620;28;20221;-73
2021/07/20 18:22:38;;;;;;;8.43;6.77;;;29.00;22.90;;;;;;10445409;28;20232;-73
2021/07/20 18:27:43;;;;;;;7.27;6.57;;;29.00;23.60;;;;;;10444644;28;20231;-73
2021/07/20 18:32:46;;;;;;;7.47;6.77;;;28.90;22.80;;;;;;10455968;28;20577;-73
2021/07/20 18:37:49;;;;;;;7.67;6.87;;;28.80;22.80;;;;;;10442040;28;20221;-73
2021/07/20 18:42:54;;;;;;;7.43;6.73;;;28.70;23.00;;;;;;10448094;28;20565;-73
2021/07/20 18:47:57;;;;;;;7.00;6.30;;;28.70;23.00;;;;;;10446823;28;20225;-73
2021/07/20 18:53:00;;;;;;;7.00;6.40;;;28.60;23.10;;;;;;10453755;28;20258;-73
2021/07/20 18:58:05;;;;;;;7.00;6.40;;;28.50;23.20;;;;;;10448615;28;20270;-73
2021/07/20 19:03:09;;;;;;;6.80;6.20;;;28.50;23.30;;;;;;10453167;28;20298;-73
2021/07/20 19:08:12;;;;;;;6.87;6.37;;;28.30;23.60;;;;;;10456651;28;20217;-73
2021/07/20 19:13:17;;;;;;;7.57;6.30;;;28.20;23.70;;;;;;10447342;28;20224;-73
2021/07/20 19:18:22;;;;;;;7.67;6.97;;;28.00;24.60;;;;;;10449255;28;20270;-73
2021/07/20 19:23:25;;;;;;;8.47;6.70;;;27.80;24.00;;;;;;10437151;28;20617;-72
2021/07/20 19:28:30;;;;;;;6.70;6.10;;;27.60;24.10;;;;;;10436960;28;20229;-73
2021/07/20 19:33:33;;;;;;;6.97;6.37;;;27.40;24.50;;;;;;10436377;28;20759;-73
2021/07/20 19:38:36;;;;;;;7.27;6.57;;;27.20;24.50;;;;;;10437388;28;20647;-72
2021/07/20 19:43:41;;;;;;;7.63;6.90;;;27.00;24.60;;;;;;10445606;28;20229;-72
2021/07/20 19:48:44;;;;;;;7.07;6.37;;;26.80;25.10;;;;;;10447956;28;20231;-72
2021/07/20 19:53:47;;;;;;;7.60;6.83;;;26.60;25.00;;;;;;10442956;28;20224;-72
2021/07/20 19:58:52;;;;;;;7.13;6.43;;;26.40;25.20;;;;;;10446226;28;20217;-73
2021/07/20 20:03:55;;;;;;;7.40;6.70;;;26.30;25.70;;;;;;10443655;28;20233;-73
2021/07/20 20:08:58;;;;;;;7.77;7.00;;;26.10;25.80;;;;;;10446962;28;20229;-72
2021/07/20 20:14:03;;;;;;;7.10;6.40;;;26.00;26.10;;;;;;10443360;28;20615;-71
2021/07/20 20:19:06;;;;;;;6.63;6.03;;;25.90;26.30;;;;;;10443438;28;20253;-72
2021/07/20 20:24:10;;;;;;;6.93;6.33;;;25.80;26.30;;;;;;10443862;28;20233;-72
2021/07/20 20:29:14;;;;;;;6.83;6.23;;;25.70;26.50;;;;;;10441928;28;20235;-72
2021/07/20 20:34:17;;;;;;;6.80;6.20;;;25.60;27.00;;;;;;10446923;28;20251;-73
2021/07/20 20:39:21;;;;;;;6.97;6.37;;;25.40;26.70;;;;;;10442814;28;20250;-72
2021/07/20 20:44:26;;;;;;;7.30;6.60;;;25.30;26.80;;;;;;10439266;28;20248;-73
2021/07/20 20:49:29;;;;;;;8.13;6.47;;;25.20;27.10;;;;;;10443162;28;20232;-73
2021/07/20 20:54:32;;;;;;;6.30;5.80;;;25.10;26.90;;;;;;10440091;28;20233;-73
2021/07/20 20:59:37;;;;;;;6.33;5.83;;;25.00;27.50;;;;;;10439278;28;20602;-72
2021/07/20 21:04:40;;;;;;;8.07;6.43;;;24.80;27.50;;;;;;10440377;28;20240;-73
2021/07/20 21:09:43;;;;;;;7.00;6.30;;;24.70;27.40;;;;;;10446580;28;20232;-72
2021/07/20 21:14:48;;;;;;;6.70;6.20;;;24.60;27.50;;;;;;10443535;28;20217;-73
2021/07/20 21:19:52;;;;;;;7.10;6.40;;;24.50;27.90;;;;;;10438429;28;20236;-72
2021/07/20 21:24:55;;;;;;;7.47;6.67;;;24.30;27.70;;;;;;10442388;28;20233;-72
2021/07/20 21:30:00;;;;;;;7.60;6.90;;;24.30;28.00;;;;;;10441426;28;20232;-73
2021/07/20 21:35:03;;;;;;;10.53;9.53;;;24.10;28.10;;;;;;10432839;28;20221;-72
2021/07/20 21:40:10;;;;;;;9.90;8.90;;;24.00;28.00;;;;;;10440039;28;20236;-72
2021/07/20 21:45:15;;;;;;;8.90;8.10;;;23.60;28.30;;;;;;10445022;28;20623;-72
2021/07/20 21:50:18;;;;;;;8.80;7.83;;;23.40;28.60;;;;;;10438873;28;20263;-73
2021/07/20 21:55:21;;;;;;;9.00;7.60;;;23.10;28.40;;;;;;10441243;28;20232;-73
2021/07/20 22:00:28;;;;;;;7.33;6.63;;;22.80;28.50;;;;;;10439244;28;20239;-73
2021/07/20 22:05:32;;;;;;;6.87;6.23;;;22.70;29.40;;;;;;10439860;28;20318;-72
2021/07/20 22:10:36;;;;;;;7.83;6.60;;;22.50;29.10;;;;;;10439756;28;20259;-73
2021/07/20 22:15:41;;;;;;;8.77;6.83;;;22.40;29.30;;;;;;10433370;28;20247;-72
2021/07/20 22:20:44;;;;;;;8.17;7.37;;;22.50;29.80;;;;;;10433217;28;20226;-72
2021/07/20 22:25:52;;;;;;;7.70;6.90;;;22.50;29.60;;;;;;10446782;28;20233;-72
2021/07/20 22:30:57;;;;;;;7.73;7.00;;;22.40;29.90;;;;;;10448149;28;20983;-73
2021/07/20 22:36:04;;;;;;;7.53;6.83;;;22.30;29.70;;;;;;10447884;28;20627;-72
2021/07/20 22:41:07;;;;;;;8.07;7.27;;;22.30;29.70;;;;;;10446830;28;20228;-72
2021/07/20 22:46:12;;;;;;;8.00;7.27;;;22.20;29.60;;;;;;10458599;28;20235;-72
2021/07/20 22:51:15;;;;;;;7.77;7.07;;;22.10;30.00;;;;;;10455395;28;20637;-72
2021/07/20 22:56:18;;;;;;;8.97;8.07;;;22.00;29.50;;;;;;10456731;28;20268;-73
2021/07/20 23:01:23;;;;;;;9.93;8.93;;;21.90;29.60;;;;;;10451652;28;20243;-72
2021/07/20 23:06:27;;;;;;;9.27;8.37;;;21.70;30.00;;;;;;10450614;28;20258;-72
2021/07/20 23:11:30;;;;;;;8.63;7.77;;;21.50;29.80;;;;;;10458114;28;20225;-72
2021/07/20 23:16:35;;;;;;;7.73;6.97;;;21.30;30.00;;;;;;10450665;28;20796;-72
2021/07/20 23:21:38;;;;;;;7.47;6.73;;;21.00;30.60;;;;;;10450799;28;20236;-72
2021/07/20 23:26:41;;;;;;;7.60;6.90;;;20.90;30.40;;;;;;10453644;28;20229;-72
2021/07/20 23:31:46;;;;;;;7.77;7.07;;;20.90;30.80;;;;;;10456532;28;20628;-72
2021/07/20 23:36:50;;;;;;;6.63;6.03;;;20.90;31.50;;;;;;10448296;28;20244;-72
2021/07/20 23:41:54;;;;;;;7.37;6.67;;;20.90;31.00;;;;;;10449612;28;20613;-72
2021/07/20 23:46:58;;;;;;;7.13;6.43;;;20.90;31.10;;;;;;10442315;28;20330;-73
2021/07/20 23:52:02;;;;;;;7.03;6.33;;;20.80;31.40;;;;;;10447296;28;20225;-72
2021/07/20 23:57:05;;;;;;;6.90;6.30;;;20.70;31.10;;;;;;10421974;28;20217;-72
